sensor_id;sensor_type;location;lat;lon;timestamp;temperature;humidity
12156;DHT22;6141;49.092;8.516;2023-03-01T00:01:10;2.60;31.90
12156;DHT22;6141;49.092;8.516;2023-03-01T00:03:38;2.50;31.70
12156;DHT22;6141;49.092;8.516;2023-03-01T00:06:06;2.50;32.40
12156;DHT22;6141;49.092;8.516;2023-03-01T00:08:36;2.10;33.20
12156;DHT22;6141;49.092;8.516;2023-03-01T00:11:05;1.80;34.60
12156;DHT22;6141;49.092;8.516;2023-03-01T00:13:34;1.60;35.30
12156;DHT22;6141;49.092;8.516;2023-03-01T00:16:02;1.40;36.00
12156;DHT22;6141;49.092;8.516;2023-03-01T00:18:31;1.30;36.80
12156;DHT22;6141;49.092;8.516;2023-03-01T00:20:59;1.20;37.40
12156;DHT22;6141;49.092;8.516;2023-03-01T00:23:27;1.20;37.40
12156;DHT22;6141;49.092;8.516;2023-03-01T00:25:57;1.20;37.40
12156;DHT22;6141;49.092;8.516;2023-03-01T00:28:25;1.10;37.30
12156;DHT22;6141;49.092;8.516;2023-03-01T00:30:54;1.00;37.30
12156;DHT22;6141;49.092;8.516;2023-03-01T00:33:22;1.10;37.30
12156;DHT22;6141;49.092;8.516;2023-03-01T00:35:50;1.30;37.50
12156;DHT22;6141;49.092;8.516;2023-03-01T00:38:19;1.50;36.00
12156;DHT22;6141;49.092;8.516;2023-03-01T00:40:47;1.70;35.30
12156;DHT22;6141;49.092;8.516;2023-03-01T00:43:16;1.90;34.80
12156;DHT22;6141;49.092;8.516;2023-03-01T00:45:44;2.00;34.50
12156;DHT22;6141;49.092;8.516;2023-03-01T00:48:12;2.10;34.20
12156;DHT22;6141;49.092;8.516;2023-03-01T00:50:40;2.20;34.00
12156;DHT22;6141;49.092;8.516;2023-03-01T00:53:08;2.20;33.80
12156;DHT22;6141;49.092;8.516;2023-03-01T00:55:36;2.30;33.60
12156;DHT22;6141;49.092;8.516;2023-03-01T00:58:05;2.30;33.50
12156;DHT22;6141;49.092;8.516;2023-03-01T01:00:34;2.40;33.40
12156;DHT22;6141;49.092;8.516;2023-03-01T01:03:02;2.50;33.40
12156;DHT22;6141;49.092;8.516;2023-03-01T01:05:33;2.50;33.20
12156;DHT22;6141;49.092;8.516;2023-03-01T01:08:01;2.40;33.50
12156;DHT22;6141;49.092;8.516;2023-03-01T01:10:29;2.40;33.60
12156;DHT22;6141;49.092;8.516;2023-03-01T01:12:57;2.30;34.10
12156;DHT22;6141;49.092;8.516;2023-03-01T01:15:25;2.30;34.20
12156;DHT22;6141;49.092;8.516;2023-03-01T01:17:55;2.30;34.40
12156;DHT22;6141;49.092;8.516;2023-03-01T01:20:23;2.30;35.00
12156;DHT22;6141;49.092;8.516;2023-03-01T01:22:51;2.30;34.70
12156;DHT22;6141;49.092;8.516;2023-03-01T01:25:20;2.30;34.90
12156;DHT22;6141;49.092;8.516;2023-03-01T01:27:48;2.30;34.80
12156;DHT22;6141;49.092;8.516;2023-03-01T01:30:16;2.20;34.90
12156;DHT22;6141;49.092;8.516;2023-03-01T01:32:45;2.20;34.80
12156;DHT22;6141;49.092;8.516;2023-03-01T01:35:14;2.30;34.90
12156;DHT22;6141;49.092;8.516;2023-03-01T01:37:43;2.30;34.80
12156;DHT22;6141;49.092;8.516;2023-03-01T01:40:11;2.30;34.40
12156;DHT22;6141;49.092;8.516;2023-03-01T01:42:39;2.30;34.40
12156;DHT22;6141;49.092;8.516;2023-03-01T01:45:28;2.30;34.30
12156;DHT22;6141;49.092;8.516;2023-03-01T01:47:57;2.30;34.40
12156;DHT22;6141;49.092;8.516;2023-03-01T01:50:28;2.40;34.40
12156;DHT22;6141;49.092;8.516;2023-03-01T01:53:05;2.40;34.30
12156;DHT22;6141;49.092;8.516;2023-03-01T01:55:33;2.40;34.20
12156;DHT22;6141;49.092;8.516;2023-03-01T01:58:04;2.40;34.20
12156;DHT22;6141;49.092;8.516;2023-03-01T02:00:34;2.40;34.10
12156;DHT22;6141;49.092;8.516;2023-03-01T02:03:03;2.40;34.00
12156;DHT22;6141;49.092;8.516;2023-03-01T02:05:34;2.40;34.00
12156;DHT22;6141;49.092;8.516;2023-03-01T02:08:04;2.40;34.10
12156;DHT22;6141;49.092;8.516;2023-03-01T02:10:33;2.40;34.00
12156;DHT22;6141;49.092;8.516;2023-03-01T02:13:02;2.40;33.90
12156;DHT22;6141;49.092;8.516;2023-03-01T02:15:31;2.40;34.00
12156;DHT22;6141;49.092;8.516;2023-03-01T02:18:00;2.40;33.80
12156;DHT22;6141;49.092;8.516;2023-03-01T02:20:30;2.40;33.90
12156;DHT22;6141;49.092;8.516;2023-03-01T02:23:02;2.30;34.00
12156;DHT22;6141;49.092;8.516;2023-03-01T02:25:33;2.20;34.40
12156;DHT22;6141;49.092;8.516;2023-03-01T02:28:05;2.20;34.60
12156;DHT22;6141;49.092;8.516;2023-03-01T02:30:37;2.10;34.50
12156;DHT22;6141;49.092;8.516;2023-03-01T02:33:25;2.00;34.50
12156;DHT22;6141;49.092;8.516;2023-03-01T02:35:53;1.80;35.10
12156;DHT22;6141;49.092;8.516;2023-03-01T02:38:22;1.70;35.90
12156;DHT22;6141;49.092;8.516;2023-03-01T02:40:51;1.70;35.50
12156;DHT22;6141;49.092;8.516;2023-03-01T02:43:19;1.80;36.00
12156;DHT22;6141;49.092;8.516;2023-03-01T02:45:51;1.70;36.00
12156;DHT22;6141;49.092;8.516;2023-03-01T02:48:19;1.80;36.00
12156;DHT22;6141;49.092;8.516;2023-03-01T02:50:52;1.80;35.70
12156;DHT22;6141;49.092;8.516;2023-03-01T02:53:25;1.70;36.20
12156;DHT22;6141;49.092;8.516;2023-03-01T02:55:55;1.70;35.70
12156;DHT22;6141;49.092;8.516;2023-03-01T02:58:23;1.80;36.00
12156;DHT22;6141;49.092;8.516;2023-03-01T03:00:53;1.80;35.70
12156;DHT22;6141;49.092;8.516;2023-03-01T03:03:21;1.90;35.70
12156;DHT22;6141;49.092;8.516;2023-03-01T03:05:51;2.00;35.60
12156;DHT22;6141;49.092;8.516;2023-03-01T03:08:19;2.00;35.60
12156;DHT22;6141;49.092;8.516;2023-03-01T03:10:51;2.00;35.40
12156;DHT22;6141;49.092;8.516;2023-03-01T03:13:19;2.10;34.90
12156;DHT22;6141;49.092;8.516;2023-03-01T03:15:50;2.10;34.60
12156;DHT22;6141;49.092;8.516;2023-03-01T03:18:20;2.20;34.40
12156;DHT22;6141;49.092;8.516;2023-03-01T03:20:49;2.00;35.20
12156;DHT22;6141;49.092;8.516;2023-03-01T03:23:19;1.90;35.40
12156;DHT22;6141;49.092;8.516;2023-03-01T03:25:48;1.70;35.90
12156;DHT22;6141;49.092;8.516;2023-03-01T03:28:16;1.80;35.20
12156;DHT22;6141;49.092;8.516;2023-03-01T03:30:45;1.80;35.00
12156;DHT22;6141;49.092;8.516;2023-03-01T03:33:13;1.90;34.60
12156;DHT22;6141;49.092;8.516;2023-03-01T03:35:43;1.90;34.70
12156;DHT22;6141;49.092;8.516;2023-03-01T03:38:13;1.90;34.30
12156;DHT22;6141;49.092;8.516;2023-03-01T03:40:45;1.90;34.60
12156;DHT22;6141;49.092;8.516;2023-03-01T03:43:14;1.90;34.20
12156;DHT22;6141;49.092;8.516;2023-03-01T03:45:43;2.00;34.00
12156;DHT22;6141;49.092;8.516;2023-03-01T03:48:12;2.20;34.00
12156;DHT22;6141;49.092;8.516;2023-03-01T03:50:40;1.90;34.00
12156;DHT22;6141;49.092;8.516;2023-03-01T03:53:10;1.80;34.40
12156;DHT22;6141;49.092;8.516;2023-03-01T03:55:38;1.90;33.90
12156;DHT22;6141;49.092;8.516;2023-03-01T03:58:08;1.90;33.30
12156;DHT22;6141;49.092;8.516;2023-03-01T04:00:37;1.90;32.70
12156;DHT22;6141;49.092;8.516;2023-03-01T04:03:05;2.00;33.20
12156;DHT22;6141;49.092;8.516;2023-03-01T04:05:34;1.90;33.40
12156;DHT22;6141;49.092;8.516;2023-03-01T04:08:03;1.90;33.70
12156;DHT22;6141;49.092;8.516;2023-03-01T04:10:39;1.90;33.90
12156;DHT22;6141;49.092;8.516;2023-03-01T04:13:09;1.80;34.20
12156;DHT22;6141;49.092;8.516;2023-03-01T04:15:37;1.60;35.10
12156;DHT22;6141;49.092;8.516;2023-03-01T04:18:06;1.50;35.90
12156;DHT22;6141;49.092;8.516;2023-03-01T04:20:35;1.50;35.90
12156;DHT22;6141;49.092;8.516;2023-03-01T04:23:04;1.60;34.80
12156;DHT22;6141;49.092;8.516;2023-03-01T04:25:41;1.60;35.10
12156;DHT22;6141;49.092;8.516;2023-03-01T04:28:09;1.60;34.60
12156;DHT22;6141;49.092;8.516;2023-03-01T04:30:38;1.60;34.90
12156;DHT22;6141;49.092;8.516;2023-03-01T04:33:07;1.60;35.00
12156;DHT22;6141;49.092;8.516;2023-03-01T04:35:35;1.60;35.00
12156;DHT22;6141;49.092;8.516;2023-03-01T04:38:04;1.60;35.30
12156;DHT22;6141;49.092;8.516;2023-03-01T04:40:33;1.60;35.50
12156;DHT22;6141;49.092;8.516;2023-03-01T04:43:03;1.70;35.30
12156;DHT22;6141;49.092;8.516;2023-03-01T04:45:32;1.70;35.20
12156;DHT22;6141;49.092;8.516;2023-03-01T04:48:01;1.70;35.60
12156;DHT22;6141;49.092;8.516;2023-03-01T04:50:29;1.80;35.30
12156;DHT22;6141;49.092;8.516;2023-03-01T04:52:57;1.70;35.10
12156;DHT22;6141;49.092;8.516;2023-03-01T04:55:26;1.70;35.00
12156;DHT22;6141;49.092;8.516;2023-03-01T04:57:54;1.70;35.20
12156;DHT22;6141;49.092;8.516;2023-03-01T05:00:24;1.70;35.10
12156;DHT22;6141;49.092;8.516;2023-03-01T05:02:53;1.70;35.00
12156;DHT22;6141;49.092;8.516;2023-03-01T05:05:23;1.80;34.60
12156;DHT22;6141;49.092;8.516;2023-03-01T05:07:53;1.80;34.20
12156;DHT22;6141;49.092;8.516;2023-03-01T05:10:21;1.80;34.30
12156;DHT22;6141;49.092;8.516;2023-03-01T05:12:50;1.80;34.10
12156;DHT22;6141;49.092;8.516;2023-03-01T05:15:19;1.80;34.10
12156;DHT22;6141;49.092;8.516;2023-03-01T05:17:50;1.90;33.70
12156;DHT22;6141;49.092;8.516;2023-03-01T05:20:21;1.90;33.80
12156;DHT22;6141;49.092;8.516;2023-03-01T05:22:50;1.80;33.50
12156;DHT22;6141;49.092;8.516;2023-03-01T05:25:19;1.80;33.50
12156;DHT22;6141;49.092;8.516;2023-03-01T05:27:48;1.80;33.50
12156;DHT22;6141;49.092;8.516;2023-03-01T05:30:16;1.80;33.80
12156;DHT22;6141;49.092;8.516;2023-03-01T05:32:45;1.80;33.50
12156;DHT22;6141;49.092;8.516;2023-03-01T05:35:16;1.80;33.80
12156;DHT22;6141;49.092;8.516;2023-03-01T05:37:45;1.70;34.20
12156;DHT22;6141;49.092;8.516;2023-03-01T05:40:14;1.50;35.50
12156;DHT22;6141;49.092;8.516;2023-03-01T05:42:43;1.40;36.10
12156;DHT22;6141;49.092;8.516;2023-03-01T05:45:12;1.30;36.50
12156;DHT22;6141;49.092;8.516;2023-03-01T05:47:41;1.30;36.50
12156;DHT22;6141;49.092;8.516;2023-03-01T05:50:12;1.30;36.80
12156;DHT22;6141;49.092;8.516;2023-03-01T05:52:41;1.30;37.00
12156;DHT22;6141;49.092;8.516;2023-03-01T05:55:09;1.40;37.10
12156;DHT22;6141;49.092;8.516;2023-03-01T05:57:38;1.40;36.60
12156;DHT22;6141;49.092;8.516;2023-03-01T06:00:07;1.50;36.20
12156;DHT22;6141;49.092;8.516;2023-03-01T06:02:38;1.60;36.10
12156;DHT22;6141;49.092;8.516;2023-03-01T06:05:07;1.60;36.00
12156;DHT22;6141;49.092;8.516;2023-03-01T06:07:39;1.60;35.30
12156;DHT22;6141;49.092;8.516;2023-03-01T06:10:10;1.70;35.40
12156;DHT22;6141;49.092;8.516;2023-03-01T06:12:39;1.70;35.60
12156;DHT22;6141;49.092;8.516;2023-03-01T06:15:08;1.70;35.90
12156;DHT22;6141;49.092;8.516;2023-03-01T06:17:37;1.60;35.40
12156;DHT22;6141;49.092;8.516;2023-03-01T06:20:06;1.70;35.50
12156;DHT22;6141;49.092;8.516;2023-03-01T06:22:35;1.70;35.50
12156;DHT22;6141;49.092;8.516;2023-03-01T06:25:03;1.80;35.00
12156;DHT22;6141;49.092;8.516;2023-03-01T06:27:33;1.80;34.70
12156;DHT22;6141;49.092;8.516;2023-03-01T06:30:01;1.80;34.50
12156;DHT22;6141;49.092;8.516;2023-03-01T06:32:29;1.80;34.50
12156;DHT22;6141;49.092;8.516;2023-03-01T06:34:58;1.80;35.10
12156;DHT22;6141;49.092;8.516;2023-03-01T06:37:26;1.80;35.00
12156;DHT22;6141;49.092;8.516;2023-03-01T06:39:55;1.80;35.30
12156;DHT22;6141;49.092;8.516;2023-03-01T06:42:23;1.60;35.10
12156;DHT22;6141;49.092;8.516;2023-03-01T06:44:52;1.90;35.30
12156;DHT22;6141;49.092;8.516;2023-03-01T06:47:20;1.80;35.10
12156;DHT22;6141;49.092;8.516;2023-03-01T06:49:48;1.90;35.10
12156;DHT22;6141;49.092;8.516;2023-03-01T06:52:16;1.90;35.20
12156;DHT22;6141;49.092;8.516;2023-03-01T06:54:45;1.90;34.80
12156;DHT22;6141;49.092;8.516;2023-03-01T06:57:13;2.00;34.80
12156;DHT22;6141;49.092;8.516;2023-03-01T06:59:41;2.00;34.60
12156;DHT22;6141;49.092;8.516;2023-03-01T07:02:11;2.10;34.60
12156;DHT22;6141;49.092;8.516;2023-03-01T07:04:40;2.10;34.80
12156;DHT22;6141;49.092;8.516;2023-03-01T07:07:14;2.00;35.40
12156;DHT22;6141;49.092;8.516;2023-03-01T07:09:42;1.90;36.10
12156;DHT22;6141;49.092;8.516;2023-03-01T07:12:10;1.80;36.10
12156;DHT22;6141;49.092;8.516;2023-03-01T07:14:38;1.80;36.70
12156;DHT22;6141;49.092;8.516;2023-03-01T07:17:06;1.80;37.10
12156;DHT22;6141;49.092;8.516;2023-03-01T07:19:36;1.80;37.20
12156;DHT22;6141;49.092;8.516;2023-03-01T07:22:04;1.80;37.60
12156;DHT22;6141;49.092;8.516;2023-03-01T07:24:34;1.80;37.40
12156;DHT22;6141;49.092;8.516;2023-03-01T07:27:02;2.00;37.20
12156;DHT22;6141;49.092;8.516;2023-03-01T07:29:30;2.10;36.80
12156;DHT22;6141;49.092;8.516;2023-03-01T07:31:58;2.10;36.70
12156;DHT22;6141;49.092;8.516;2023-03-01T07:34:27;2.10;37.10
12156;DHT22;6141;49.092;8.516;2023-03-01T07:36:56;2.10;37.20
12156;DHT22;6141;49.092;8.516;2023-03-01T07:39:24;2.10;36.80
12156;DHT22;6141;49.092;8.516;2023-03-01T07:41:53;2.20;36.70
12156;DHT22;6141;49.092;8.516;2023-03-01T07:44:21;2.40;37.00
12156;DHT22;6141;49.092;8.516;2023-03-01T07:46:52;2.40;36.30
12156;DHT22;6141;49.092;8.516;2023-03-01T07:49:22;2.50;36.20
12156;DHT22;6141;49.092;8.516;2023-03-01T07:51:53;2.60;36.30
12156;DHT22;6141;49.092;8.516;2023-03-01T07:54:22;2.70;36.20
12156;DHT22;6141;49.092;8.516;2023-03-01T07:56:50;2.70;35.40
12156;DHT22;6141;49.092;8.516;2023-03-01T07:59:20;2.70;36.00
12156;DHT22;6141;49.092;8.516;2023-03-01T08:01:50;2.80;36.30
12156;DHT22;6141;49.092;8.516;2023-03-01T08:04:18;2.90;36.10
12156;DHT22;6141;49.092;8.516;2023-03-01T08:06:46;3.00;35.60
12156;DHT22;6141;49.092;8.516;2023-03-01T08:09:15;3.10;35.20
12156;DHT22;6141;49.092;8.516;2023-03-01T08:11:45;3.10;35.70
12156;DHT22;6141;49.092;8.516;2023-03-01T08:14:13;3.30;35.50
12156;DHT22;6141;49.092;8.516;2023-03-01T08:16:41;3.50;34.60
12156;DHT22;6141;49.092;8.516;2023-03-01T08:19:10;3.70;33.70
12156;DHT22;6141;49.092;8.516;2023-03-01T08:21:38;3.80;33.60
12156;DHT22;6141;49.092;8.516;2023-03-01T08:24:07;3.90;33.70
12156;DHT22;6141;49.092;8.516;2023-03-01T08:26:36;3.90;32.80
12156;DHT22;6141;49.092;8.516;2023-03-01T08:29:06;3.80;33.00
12156;DHT22;6141;49.092;8.516;2023-03-01T08:31:35;3.90;32.80
12156;DHT22;6141;49.092;8.516;2023-03-01T08:34:04;4.10;32.30
12156;DHT22;6141;49.092;8.516;2023-03-01T08:36:34;4.20;32.40
12156;DHT22;6141;49.092;8.516;2023-03-01T08:39:04;4.30;33.30
12156;DHT22;6141;49.092;8.516;2023-03-01T08:41:32;4.30;31.40
12156;DHT22;6141;49.092;8.516;2023-03-01T08:44:02;4.30;31.00
12156;DHT22;6141;49.092;8.516;2023-03-01T08:46:32;4.20;31.70
12156;DHT22;6141;49.092;8.516;2023-03-01T08:49:03;4.10;32.40
12156;DHT22;6141;49.092;8.516;2023-03-01T08:51:31;4.20;32.70
12156;DHT22;6141;49.092;8.516;2023-03-01T08:54:03;4.60;32.10
12156;DHT22;6141;49.092;8.516;2023-03-01T08:56:32;4.70;30.80
12156;DHT22;6141;49.092;8.516;2023-03-01T08:59:00;4.60;30.20
12156;DHT22;6141;49.092;8.516;2023-03-01T09:01:28;4.60;30.80
12156;DHT22;6141;49.092;8.516;2023-03-01T09:03:57;4.70;30.90
12156;DHT22;6141;49.092;8.516;2023-03-01T09:06:25;4.80;30.80
12156;DHT22;6141;49.092;8.516;2023-03-01T09:08:54;5.00;29.80
12156;DHT22;6141;49.092;8.516;2023-03-01T09:11:22;5.10;29.90
12156;DHT22;6141;49.092;8.516;2023-03-01T09:13:50;5.30;29.00
12156;DHT22;6141;49.092;8.516;2023-03-01T09:16:19;5.50;29.50
12156;DHT22;6141;49.092;8.516;2023-03-01T09:18:48;5.70;28.70
12156;DHT22;6141;49.092;8.516;2023-03-01T09:21:18;5.60;29.30
12156;DHT22;6141;49.092;8.516;2023-03-01T09:24:05;5.70;28.50
12156;DHT22;6141;49.092;8.516;2023-03-01T09:26:33;5.80;28.90
12156;DHT22;6141;49.092;8.516;2023-03-01T09:29:01;6.00;28.60
12156;DHT22;6141;49.092;8.516;2023-03-01T09:31:30;6.10;27.80
12156;DHT22;6141;49.092;8.516;2023-03-01T09:33:58;6.10;27.90
12156;DHT22;6141;49.092;8.516;2023-03-01T09:36:27;6.30;27.60
12156;DHT22;6141;49.092;8.516;2023-03-01T09:38:57;6.30;27.40
12156;DHT22;6141;49.092;8.516;2023-03-01T09:44:15;6.10;27.70
12156;DHT22;6141;49.092;8.516;2023-03-01T09:46:46;6.20;27.80
12156;DHT22;6141;49.092;8.516;2023-03-01T09:49:15;6.30;28.30
12156;DHT22;6141;49.092;8.516;2023-03-01T09:51:53;6.40;27.60
12156;DHT22;6141;49.092;8.516;2023-03-01T09:54:22;6.50;27.20
12156;DHT22;6141;49.092;8.516;2023-03-01T09:56:57;6.70;27.30
12156;DHT22;6141;49.092;8.516;2023-03-01T09:59:30;6.90;26.90
12156;DHT22;6141;49.092;8.516;2023-03-01T10:02:01;6.90;26.50
12156;DHT22;6141;49.092;8.516;2023-03-01T10:04:36;7.00;26.20
12156;DHT22;6141;49.092;8.516;2023-03-01T10:07:16;7.20;26.70
12156;DHT22;6141;49.092;8.516;2023-03-01T10:09:46;7.40;26.00
12156;DHT22;6141;49.092;8.516;2023-03-01T10:12:16;7.50;25.70
12156;DHT22;6141;49.092;8.516;2023-03-01T10:14:48;7.40;25.60
12156;DHT22;6141;49.092;8.516;2023-03-01T10:17:20;7.40;25.60
12156;DHT22;6141;49.092;8.516;2023-03-01T10:19:52;7.50;26.00
12156;DHT22;6141;49.092;8.516;2023-03-01T10:22:21;7.50;25.70
12156;DHT22;6141;49.092;8.516;2023-03-01T10:24:50;7.60;25.70
12156;DHT22;6141;49.092;8.516;2023-03-01T10:27:20;7.70;25.80
12156;DHT22;6141;49.092;8.516;2023-03-01T10:29:51;7.80;25.90
12156;DHT22;6141;49.092;8.516;2023-03-01T10:32:22;7.90;25.40
12156;DHT22;6141;49.092;8.516;2023-03-01T10:34:51;8.10;24.90
12156;DHT22;6141;49.092;8.516;2023-03-01T10:37:23;8.10;24.50
12156;DHT22;6141;49.092;8.516;2023-03-01T10:39:54;8.20;25.20
12156;DHT22;6141;49.092;8.516;2023-03-01T10:42:26;8.30;24.60
12156;DHT22;6141;49.092;8.516;2023-03-01T10:44:57;8.40;24.10
12156;DHT22;6141;49.092;8.516;2023-03-01T10:47:26;8.40;24.80
12156;DHT22;6141;49.092;8.516;2023-03-01T10:50:04;8.40;24.00
12156;DHT22;6141;49.092;8.516;2023-03-01T10:52:35;8.40;23.80
12156;DHT22;6141;49.092;8.516;2023-03-01T10:55:04;8.50;24.10
12156;DHT22;6141;49.092;8.516;2023-03-01T10:57:50;8.50;24.10
12156;DHT22;6141;49.092;8.516;2023-03-01T11:00:33;8.50;23.90
12156;DHT22;6141;49.092;8.516;2023-03-01T11:03:14;8.60;23.30
12156;DHT22;6141;49.092;8.516;2023-03-01T11:05:56;8.60;23.70
12156;DHT22;6141;49.092;8.516;2023-03-01T11:08:33;8.70;23.80
12156;DHT22;6141;49.092;8.516;2023-03-01T11:11:07;8.70;24.10
12156;DHT22;6141;49.092;8.516;2023-03-01T11:13:47;8.90;23.30
12156;DHT22;6141;49.092;8.516;2023-03-01T11:16:23;8.90;22.40
12156;DHT22;6141;49.092;8.516;2023-03-01T11:18:57;9.00;22.50
12156;DHT22;6141;49.092;8.516;2023-03-01T11:21:25;9.00;22.80
12156;DHT22;6141;49.092;8.516;2023-03-01T11:23:56;9.10;22.70
12156;DHT22;6141;49.092;8.516;2023-03-01T11:26:26;9.20;22.90
12156;DHT22;6141;49.092;8.516;2023-03-01T11:28:56;9.40;21.90
12156;DHT22;6141;49.092;8.516;2023-03-01T11:31:26;9.70;22.20
12156;DHT22;6141;49.092;8.516;2023-03-01T11:33:57;9.80;22.20
12156;DHT22;6141;49.092;8.516;2023-03-01T11:36:29;9.70;22.20
12156;DHT22;6141;49.092;8.516;2023-03-01T11:39:02;9.70;22.00
12156;DHT22;6141;49.092;8.516;2023-03-01T11:41:31;9.70;22.20
12156;DHT22;6141;49.092;8.516;2023-03-01T11:44:01;9.90;22.90
12156;DHT22;6141;49.092;8.516;2023-03-01T11:46:34;9.90;21.40
12156;DHT22;6141;49.092;8.516;2023-03-01T11:49:13;9.90;21.40
12156;DHT22;6141;49.092;8.516;2023-03-01T11:51:47;9.80;21.60
12156;DHT22;6141;49.092;8.516;2023-03-01T11:54:21;9.80;20.90
12156;DHT22;6141;49.092;8.516;2023-03-01T11:56:53;9.70;21.60
12156;DHT22;6141;49.092;8.516;2023-03-01T12:02:32;9.80;21.40
12156;DHT22;6141;49.092;8.516;2023-03-01T12:05:17;9.80;21.80
12156;DHT22;6141;49.092;8.516;2023-03-01T12:07:52;10.00;21.50
12156;DHT22;6141;49.092;8.516;2023-03-01T12:10:27;10.20;19.90
12156;DHT22;6141;49.092;8.516;2023-03-01T12:13:06;10.30;21.20
12156;DHT22;6141;49.092;8.516;2023-03-01T12:15:47;10.50;20.00
12156;DHT22;6141;49.092;8.516;2023-03-01T12:18:26;10.60;19.00
12156;DHT22;6141;49.092;8.516;2023-03-01T12:20:58;10.50;19.50
12156;DHT22;6141;49.092;8.516;2023-03-01T12:23:44;10.40;19.70
12156;DHT22;6141;49.092;8.516;2023-03-01T12:26:29;10.40;19.40
12156;DHT22;6141;49.092;8.516;2023-03-01T12:34:41;10.50;19.60
12156;DHT22;6141;49.092;8.516;2023-03-01T12:37:16;10.50;19.00
12156;DHT22;6141;49.092;8.516;2023-03-01T12:39:51;10.40;19.60
12156;DHT22;6141;49.092;8.516;2023-03-01T12:42:27;10.40;20.00
12156;DHT22;6141;49.092;8.516;2023-03-01T12:45:04;10.60;20.40
12156;DHT22;6141;49.092;8.516;2023-03-01T12:47:44;10.90;18.80
12156;DHT22;6141;49.092;8.516;2023-03-01T12:50:17;11.10;18.30
12156;DHT22;6141;49.092;8.516;2023-03-01T12:52:47;11.10;19.50
12156;DHT22;6141;49.092;8.516;2023-03-01T12:55:19;11.10;19.20
12156;DHT22;6141;49.092;8.516;2023-03-01T12:57:52;11.20;18.50
12156;DHT22;6141;49.092;8.516;2023-03-01T13:00:26;11.10;17.50
12156;DHT22;6141;49.092;8.516;2023-03-01T13:02:57;11.10;18.60
12156;DHT22;6141;49.092;8.516;2023-03-01T13:05:31;11.20;18.60
12156;DHT22;6141;49.092;8.516;2023-03-01T13:08:05;11.50;18.10
12156;DHT22;6141;49.092;8.516;2023-03-01T13:10:39;11.60;18.10
12156;DHT22;6141;49.092;8.516;2023-03-01T13:13:18;11.60;17.60
12156;DHT22;6141;49.092;8.516;2023-03-01T13:15:47;11.60;18.80
12156;DHT22;6141;49.092;8.516;2023-03-01T13:18:29;11.70;17.70
12156;DHT22;6141;49.092;8.516;2023-03-01T13:20:57;11.90;17.00
12156;DHT22;6141;49.092;8.516;2023-03-01T13:23:27;11.90;18.80
12156;DHT22;6141;49.092;8.516;2023-03-01T13:28:49;12.30;17.70
12156;DHT22;6141;49.092;8.516;2023-03-01T13:34:04;12.10;17.40
12156;DHT22;6141;49.092;8.516;2023-03-01T13:36:45;11.90;16.90
12156;DHT22;6141;49.092;8.516;2023-03-01T13:39:28;11.80;17.40
12156;DHT22;6141;49.092;8.516;2023-03-01T13:41:58;11.70;18.50
12156;DHT22;6141;49.092;8.516;2023-03-01T13:44:31;11.60;17.60
12156;DHT22;6141;49.092;8.516;2023-03-01T13:47:03;11.60;17.60
12156;DHT22;6141;49.092;8.516;2023-03-01T13:49:36;11.80;17.40
12156;DHT22;6141;49.092;8.516;2023-03-01T13:52:23;11.90;17.90
12156;DHT22;6141;49.092;8.516;2023-03-01T13:54:55;12.10;16.90
12156;DHT22;6141;49.092;8.516;2023-03-01T13:57:25;12.20;16.80
12156;DHT22;6141;49.092;8.516;2023-03-01T13:59:55;12.30;17.10
12156;DHT22;6141;49.092;8.516;2023-03-01T14:02:23;12.30;17.50
12156;DHT22;6141;49.092;8.516;2023-03-01T14:04:58;12.00;16.90
12156;DHT22;6141;49.092;8.516;2023-03-01T14:07:27;12.00;16.90
12156;DHT22;6141;49.092;8.516;2023-03-01T14:09:58;12.00;17.20
12156;DHT22;6141;49.092;8.516;2023-03-01T14:12:32;12.20;17.80
12156;DHT22;6141;49.092;8.516;2023-03-01T14:15:06;12.40;16.80
12156;DHT22;6141;49.092;8.516;2023-03-01T14:17:44;12.20;16.80
12156;DHT22;6141;49.092;8.516;2023-03-01T14:20:16;12.40;16.50
12156;DHT22;6141;49.092;8.516;2023-03-01T14:22:46;12.60;16.30
12156;DHT22;6141;49.092;8.516;2023-03-01T14:25:20;12.60;16.30
12156;DHT22;6141;49.092;8.516;2023-03-01T14:27:56;12.50;16.90
12156;DHT22;6141;49.092;8.516;2023-03-01T14:30:26;12.60;16.90
12156;DHT22;6141;49.092;8.516;2023-03-01T14:32:56;12.50;16.80
12156;DHT22;6141;49.092;8.516;2023-03-01T14:35:25;12.50;16.10
12156;DHT22;6141;49.092;8.516;2023-03-01T14:37:54;12.50;16.30
12156;DHT22;6141;49.092;8.516;2023-03-01T14:40:23;12.60;16.30
12156;DHT22;6141;49.092;8.516;2023-03-01T14:42:53;12.60;16.00
12156;DHT22;6141;49.092;8.516;2023-03-01T14:45:21;12.40;16.30
12156;DHT22;6141;49.092;8.516;2023-03-01T14:47:52;12.40;16.40
12156;DHT22;6141;49.092;8.516;2023-03-01T14:50:22;12.30;16.70
12156;DHT22;6141;49.092;8.516;2023-03-01T14:52:52;12.40;17.00
12156;DHT22;6141;49.092;8.516;2023-03-01T14:55:25;12.70;17.30
12156;DHT22;6141;49.092;8.516;2023-03-01T14:57:54;12.50;16.10
12156;DHT22;6141;49.092;8.516;2023-03-01T15:00:23;12.40;16.50
12156;DHT22;6141;49.092;8.516;2023-03-01T15:02:54;12.30;16.40
12156;DHT22;6141;49.092;8.516;2023-03-01T15:05:24;12.20;16.40
12156;DHT22;6141;49.092;8.516;2023-03-01T15:07:53;12.20;16.60
12156;DHT22;6141;49.092;8.516;2023-03-01T15:10:22;12.30;16.40
12156;DHT22;6141;49.092;8.516;2023-03-01T15:12:50;12.20;16.80
12156;DHT22;6141;49.092;8.516;2023-03-01T15:15:21;12.20;16.50
12156;DHT22;6141;49.092;8.516;2023-03-01T15:17:51;12.10;16.50
12156;DHT22;6141;49.092;8.516;2023-03-01T15:20:24;11.90;16.60
12156;DHT22;6141;49.092;8.516;2023-03-01T15:22:54;11.70;17.20
12156;DHT22;6141;49.092;8.516;2023-03-01T15:25:24;11.80;17.20
12156;DHT22;6141;49.092;8.516;2023-03-01T15:27:53;11.80;16.60
12156;DHT22;6141;49.092;8.516;2023-03-01T15:30:22;11.80;16.60
12156;DHT22;6141;49.092;8.516;2023-03-01T15:35:39;11.60;17.50
12156;DHT22;6141;49.092;8.516;2023-03-01T15:40:52;11.50;17.10
12156;DHT22;6141;49.092;8.516;2023-03-01T15:43:36;11.50;17.50
12156;DHT22;6141;49.092;8.516;2023-03-01T15:46:04;11.50;17.50
12156;DHT22;6141;49.092;8.516;2023-03-01T15:48:33;11.40;17.40
12156;DHT22;6141;49.092;8.516;2023-03-01T15:51:02;11.20;17.30
12156;DHT22;6141;49.092;8.516;2023-03-01T15:53:30;11.20;17.30
12156;DHT22;6141;49.092;8.516;2023-03-01T15:55:58;11.00;17.70
12156;DHT22;6141;49.092;8.516;2023-03-01T15:58:26;10.80;17.80
12156;DHT22;6141;49.092;8.516;2023-03-01T16:00:54;10.60;18.50
12156;DHT22;6141;49.092;8.516;2023-03-01T16:03:28;10.50;18.50
12156;DHT22;6141;49.092;8.516;2023-03-01T16:05:56;10.60;19.00
12156;DHT22;6141;49.092;8.516;2023-03-01T16:08:28;10.60;18.40
12156;DHT22;6141;49.092;8.516;2023-03-01T16:10:56;10.50;18.70
12156;DHT22;6141;49.092;8.516;2023-03-01T16:13:24;10.50;18.60
12156;DHT22;6141;49.092;8.516;2023-03-01T16:15:55;10.40;17.90
12156;DHT22;6141;49.092;8.516;2023-03-01T16:18:23;10.20;18.70
12156;DHT22;6141;49.092;8.516;2023-03-01T16:20:51;10.10;18.90
12156;DHT22;6141;49.092;8.516;2023-03-01T16:23:21;9.80;19.90
12156;DHT22;6141;49.092;8.516;2023-03-01T16:25:53;9.80;20.50
12156;DHT22;6141;49.092;8.516;2023-03-01T16:28:21;9.80;20.50
12156;DHT22;6141;49.092;8.516;2023-03-01T16:30:49;9.80;20.60
12156;DHT22;6141;49.092;8.516;2023-03-01T16:33:18;9.80;20.80
12156;DHT22;6141;49.092;8.516;2023-03-01T16:35:59;9.80;20.60
12156;DHT22;6141;49.092;8.516;2023-03-01T16:38:30;9.80;20.50
12156;DHT22;6141;49.092;8.516;2023-03-01T16:41:00;9.80;20.20